Time;durP1;ratioP1;P1;durP2;ratioP2;P2;SDS_P1;SDS_P2;PMS_P1;PMS_P2;Temp;Humidity;BMP_temperature;BMP_pressure;BME280_temperature;BME280_humidity;BME280_pressure;Samples;Min_cycle;Max_cycle;Signal;HPM_P1;HPM_P2
2021/07/09 00:02:08;;;;;;;11.43;10.37;;;16.40;99.90;;;;;;5089848;28;20422;-81
2021/07/09 00:04:34;;;;;;;12.27;11.07;;;16.40;99.90;;;;;;5074308;28;20467;-82
2021/07/09 00:07:00;;;;;;;12.57;11.37;;;16.40;99.90;;;;;;5054457;28;20435;-80
2021/07/09 00:09:26;;;;;;;11.70;10.60;;;16.30;99.90;;;;;;5057431;28;20185;-82
2021/07/09 00:11:54;;;;;;;11.70;10.50;;;16.30;99.90;;;;;;5071204;28;20418;-80
2021/07/09 00:14:27;;;;;;;12.07;10.87;;;16.30;99.90;;;;;;5073016;28;20669;-80
2021/07/09 00:16:52;;;;;;;11.90;10.70;;;16.30;99.90;;;;;;5052442;28;20458;-81
2021/07/09 00:19:18;;;;;;;10.30;9.40;;;16.30;99.90;;;;;;5061183;28;20434;-81
2021/07/09 00:21:44;;;;;;;12.20;11.10;;;16.30;99.90;;;;;;5064874;28;20189;-81
2021/07/09 00:24:10;;;;;;;12.53;11.33;;;16.30;99.90;;;;;;5058035;28;20467;-81
2021/07/09 00:26:36;;;;;;;14.53;11.77;;;16.30;99.90;;;;;;5087631;28;20180;-80
2021/07/09 00:29:03;;;;;;;14.77;12.13;;;16.30;99.90;;;;;;5093839;28;20185;-81
2021/07/09 00:31:30;;;;;;;14.57;13.07;;;16.30;99.90;;;;;;5086076;28;20185;-81
2021/07/09 00:33:57;;;;;;;12.83;11.13;;;16.30;99.90;;;;;;5091814;28;20445;-81
2021/07/09 00:36:23;;;;;;;14.10;12.90;;;16.30;99.90;;;;;;5061811;28;20429;-81
2021/07/09 00:38:48;;;;;;;14.60;13.20;;;16.40;99.90;;;;;;5088388;28;20419;-81
2021/07/09 00:41:15;;;;;;;16.13;13.30;;;16.40;99.90;;;;;;5070282;28;20683;-80
2021/07/09 00:43:40;;;;;;;14.23;12.73;;;16.40;99.90;;;;;;5065357;28;20716;-81
2021/07/09 00:46:06;;;;;;;12.80;11.60;;;16.40;99.90;;;;;;5072566;28;20428;-81
2021/07/09 00:48:33;;;;;;;14.73;13.03;;;16.40;99.90;;;;;;5090953;28;20414;-83
2021/07/09 00:51:07;;;;;;;13.67;12.27;;;16.50;99.90;;;;;;5095101;28;20415;-81
2021/07/09 00:53:34;;;;;;;14.00;12.37;;;16.40;99.90;;;;;;5093577;28;21161;-81
2021/07/09 00:56:01;;;;;;;13.90;12.43;;;16.40;99.90;;;;;;5093137;28;20519;-81
2021/07/09 00:58:27;;;;;;;13.70;12.20;;;16.40;99.90;;;;;;5047961;28;20442;-80
2021/07/09 01:00:54;;;;;;;14.07;12.63;;;16.40;99.90;;;;;;5073612;28;20509;-81
2021/07/09 01:03:20;;;;;;;15.67;13.97;;;16.40;99.90;;;;;;5043793;28;20588;-80
2021/07/09 01:05:45;;;;;;;14.60;13.20;;;16.40;99.90;;;;;;5080470;28;21003;-81
2021/07/09 01:08:12;;;;;;;16.70;14.90;;;16.40;99.90;;;;;;5094231;28;20196;-81
2021/07/09 01:10:40;;;;;;;17.90;14.10;;;16.40;99.90;;;;;;5082295;28;20181;-81
2021/07/09 01:13:06;;;;;;;15.30;13.60;;;16.40;99.90;;;;;;5086880;28;20442;-81
2021/07/09 01:15:31;;;;;;;17.20;14.33;;;16.40;99.90;;;;;;5057601;28;20442;-81
2021/07/09 01:17:57;;;;;;;20.40;15.77;;;16.40;99.90;;;;;;5087947;28;20430;-81
2021/07/09 01:20:23;;;;;;;18.53;16.47;;;16.40;99.90;;;;;;5091067;28;20229;-80
2021/07/09 01:22:50;;;;;;;17.60;15.73;;;16.40;99.90;;;;;;5084904;28;21113;-80
2021/07/09 01:25:17;;;;;;;18.77;16.33;;;16.40;99.90;;;;;;5092396;28;20442;-81
2021/07/09 01:27:44;;;;;;;18.87;15.13;;;16.40;99.90;;;;;;5082947;28;20602;-80
2021/07/09 01:30:15;;;;;;;18.37;16.33;;;16.40;99.90;;;;;;5076624;28;20442;-81
2021/07/09 01:32:41;;;;;;;18.17;16.00;;;16.40;99.90;;;;;;5093400;28;20410;-80
2021/07/09 01:35:08;;;;;;;15.47;13.30;;;16.40;99.90;;;;;;5074163;28;20960;-80
2021/07/09 01:37:34;;;;;;;17.90;15.40;;;16.50;99.90;;;;;;5084275;28;20421;-80
2021/07/09 01:40:00;;;;;;;15.67;14.00;;;16.50;99.90;;;;;;5057286;28;20423;-81
2021/07/09 01:42:26;;;;;;;18.57;14.67;;;16.50;99.90;;;;;;5084185;28;20429;-81
2021/07/09 01:44:51;;;;;;;18.87;16.00;;;16.50;99.90;;;;;;5093057;28;20477;-81
2021/07/09 01:47:18;;;;;;;18.97;16.57;;;16.50;99.90;;;;;;5057107;28;20185;-81
2021/07/09 01:49:53;;;;;;;16.43;14.70;;;16.40;99.90;;;;;;5073099;28;20219;-80
2021/07/09 01:52:19;;;;;;;21.77;16.90;;;16.50;99.90;;;;;;5051901;28;20487;-79
2021/07/09 01:54:45;;;;;;;22.10;18.73;;;16.40;99.90;;;;;;5089210;28;20521;-79
2021/07/09 01:57:11;;;;;;;23.27;19.20;;;16.40;99.90;;;;;;5084043;28;20415;-80
2021/07/09 01:59:41;;;;;;;24.60;18.00;;;16.40;99.90;;;;;;5084476;28;20253;-79
2021/07/09 02:02:08;;;;;;;20.63;18.40;;;16.40;99.90;;;;;;5068232;28;20431;-80
2021/07/09 02:04:42;;;;;;;21.90;19.60;;;16.40;99.90;;;;;;5089254;28;20522;-80
2021/07/09 02:07:08;;;;;;;22.60;17.50;;;16.40;99.90;;;;;;5076897;28;20436;-79
2021/07/09 02:09:34;;;;;;;24.83;19.10;;;16.40;99.90;;;;;;5087662;28;20498;-81
2021/07/09 02:12:00;;;;;;;20.80;17.10;;;16.40;99.90;;;;;;5067895;28;20195;-80
2021/07/09 02:14:25;;;;;;;20.07;17.17;;;16.40;99.90;;;;;;5079415;28;20287;-79
2021/07/09 02:16:51;;;;;;;21.57;17.57;;;16.40;99.90;;;;;;5057822;28;20967;-79
2021/07/09 02:19:17;;;;;;;18.70;16.70;;;16.30;99.90;;;;;;5066067;28;20845;-79
2021/07/09 02:21:47;;;;;;;20.33;16.73;;;16.30;99.90;;;;;;5076224;28;20173;-81
2021/07/09 02:24:15;;;;;;;18.63;16.10;;;16.30;99.90;;;;;;5093986;28;20462;-81
2021/07/09 02:26:42;;;;;;;22.80;17.20;;;16.20;99.90;;;;;;5047547;28;20427;-81
2021/07/09 02:29:07;;;;;;;19.30;15.90;;;16.20;99.90;;;;;;5076965;28;20438;-81
2021/07/09 02:31:33;;;;;;;19.60;16.43;;;16.20;99.90;;;;;;5095724;28;20868;-82
2021/07/09 02:34:00;;;;;;;17.67;15.77;;;16.30;99.90;;;;;;5055015;28;20211;-82
2021/07/09 02:36:26;;;;;;;22.13;17.50;;;16.30;99.90;;;;;;5088947;28;20427;-81
2021/07/09 02:38:52;;;;;;;19.80;17.53;;;16.30;99.90;;;;;;5081832;28;20423;-81
2021/07/09 02:41:18;;;;;;;21.23;17.83;;;16.30;99.90;;;;;;5085285;28;20427;-82
2021/07/09 02:43:44;;;;;;;19.37;16.00;;;16.30;99.90;;;;;;5074542;28;20496;-82
2021/07/09 02:46:10;;;;;;;20.77;17.63;;;16.30;99.90;;;;;;5095756;28;20422;-82
2021/07/09 02:48:36;;;;;;;25.60;18.07;;;16.30;99.90;;;;;;5051950;28;20454;-81
2021/07/09 02:51:01;;;;;;;19.40;17.23;;;16.20;99.90;;;;;;5076004;28;20172;-82
2021/07/09 02:53:27;;;;;;;23.20;16.83;;;16.20;99.90;;;;;;5099241;28;20185;-82
2021/07/09 02:55:53;;;;;;;20.60;17.23;;;16.20;99.90;;;;;;5096901;28;20238;-81
2021/07/09 02:58:18;;;;;;;21.00;17.67;;;16.20;99.90;;;;;;5078128;28;20200;-81
2021/07/09 03:00:44;;;;;;;19.23;17.13;;;16.30;99.90;;;;;;5062725;28;20256;-81
2021/07/09 03:03:09;;;;;;;19.00;16.83;;;16.30;99.90;;;;;;5078177;28;20220;-81
2021/07/09 03:05:35;;;;;;;21.03;18.23;;;16.30;99.90;;;;;;5069623;28;20208;-82
2021/07/09 03:08:01;;;;;;;21.07;17.50;;;16.30;99.90;;;;;;5078538;28;20185;-81
2021/07/09 03:10:27;;;;;;;21.50;19.00;;;16.30;99.90;;;;;;5095610;28;20653;-82
2021/07/09 03:12:52;;;;;;;21.57;18.57;;;16.30;99.90;;;;;;5088009;28;20444;-81
2021/07/09 03:15:18;;;;;;;22.87;20.10;;;16.30;99.90;;;;;;5055347;28;20423;-82
2021/07/09 03:17:44;;;;;;;22.03;19.67;;;16.30;99.90;;;;;;5074775;28;20193;-81
2021/07/09 03:20:10;;;;;;;23.30;20.27;;;16.30;99.90;;;;;;5066086;28;20185;-82
2021/07/09 03:22:37;;;;;;;22.93;20.33;;;16.30;99.90;;;;;;5090563;28;20190;-81
2021/07/09 03:25:08;;;;;;;20.70;18.50;;;16.30;99.90;;;;;;5097602;28;20441;-81
2021/07/09 03:27:34;;;;;;;20.63;18.53;;;16.30;99.90;;;;;;5088324;28;20437;-81
2021/07/09 03:30:00;;;;;;;22.87;19.17;;;16.30;99.90;;;;;;5093512;28;20434;-81
2021/07/09 03:32:26;;;;;;;19.30;17.20;;;16.30;99.90;;;;;;5088452;28;20450;-81
2021/07/09 03:34:51;;;;;;;21.20;18.20;;;16.30;99.90;;;;;;5059769;28;20209;-80
2021/07/09 03:37:17;;;;;;;26.07;20.60;;;16.30;99.90;;;;;;5071147;28;20193;-81
2021/07/09 03:39:43;;;;;;;20.77;18.43;;;16.30;99.90;;;;;;5045249;28;20687;-82
2021/07/09 03:42:09;;;;;;;22.60;19.60;;;16.30;99.90;;;;;;5087395;28;20864;-81
2021/07/09 03:44:34;;;;;;;28.23;25.03;;;16.30;99.90;;;;;;5072713;28;20858;-81
2021/07/09 03:47:00;;;;;;;29.20;24.70;;;16.30;99.90;;;;;;5097726;28;20184;-81
2021/07/09 03:49:26;;;;;;;30.97;24.47;;;16.30;99.90;;;;;;5059126;28;20204;-82
2021/07/09 03:51:51;;;;;;;29.23;24.97;;;16.40;99.90;;;;;;5054299;28;20200;-80
2021/07/09 03:54:17;;;;;;;29.93;25.03;;;16.40;99.90;;;;;;5056234;28;20235;-81
2021/07/09 03:56:42;;;;;;;29.53;24.30;;;16.40;99.90;;;;;;5088005;28;20642;-81
2021/07/09 03:59:08;;;;;;;33.43;27.07;;;16.40;99.90;;;;;;5071847;28;20723;-82
2021/07/09 04:01:34;;;;;;;27.00;23.50;;;16.40;99.90;;;;;;5091023;28;20177;-81
2021/07/09 04:04:00;;;;;;;31.03;25.50;;;16.40;99.90;;;;;;5044889;28;20287;-81
2021/07/09 04:06:25;;;;;;;31.30;26.87;;;16.40;99.90;;;;;;5071095;28;20209;-81
2021/07/09 04:08:51;;;;;;;30.40;27.00;;;16.40;99.90;;;;;;5039393;28;20181;-80
2021/07/09 04:11:16;;;;;;;31.20;28.00;;;16.40;99.90;;;;;;5037805;28;20246;-81
2021/07/09 04:13:42;;;;;;;35.90;28.10;;;16.40;99.90;;;;;;5072573;28;20208;-81
2021/07/09 04:16:08;;;;;;;29.53;25.97;;;16.40;99.90;;;;;;5072484;28;20189;-80
2021/07/09 04:18:34;;;;;;;32.30;28.80;;;16.40;99.90;;;;;;5070213;28;20271;-80
2021/07/09 04:21:00;;;;;;;30.07;26.87;;;16.40;99.90;;;;;;5058634;28;20188;-80
2021/07/09 04:23:26;;;;;;;33.40;27.87;;;16.40;99.90;;;;;;5070804;28;20465;-81
2021/07/09 04:25:52;;;;;;;28.73;25.30;;;16.40;99.90;;;;;;5089567;28;20415;-82
2021/07/09 04:28:18;;;;;;;30.00;25.90;;;16.40;99.90;;;;;;5089888;28;20184;-81
2021/07/09 04:30:43;;;;;;;30.53;27.27;;;16.40;99.90;;;;;;5043439;28;20208;-81
2021/07/09 04:33:09;;;;;;;31.10;26.83;;;16.40;99.90;;;;;;5086480;28;20434;-81
2021/07/09 04:35:35;;;;;;;36.07;28.40;;;16.50;99.90;;;;;;5061484;28;20223;-82
2021/07/09 04:38:00;;;;;;;32.77;29.20;;;16.50;99.90;;;;;;5083063;28;20230;-80
2021/07/09 04:40:26;;;;;;;33.13;29.33;;;16.50;99.90;;;;;;5057903;28;20246;-82
2021/07/09 04:42:52;;;;;;;34.03;29.30;;;16.50;99.90;;;;;;5071382;28;20212;-82
2021/07/09 04:45:17;;;;;;;32.53;28.40;;;16.60;99.90;;;;;;5082352;28;20208;-81
2021/07/09 04:47:43;;;;;;;32.33;28.50;;;16.60;99.90;;;;;;5055961;28;20235;-81
2021/07/09 04:50:10;;;;;;;30.70;27.40;;;16.60;99.90;;;;;;5070083;28;20271;-80
2021/07/09 04:52:35;;;;;;;29.53;26.33;;;16.60;99.90;;;;;;5094555;28;20212;-80
2021/07/09 04:55:02;;;;;;;29.00;25.90;;;16.60;99.90;;;;;;5090883;28;20466;-82
2021/07/09 04:57:28;;;;;;;30.17;27.00;;;16.60;99.90;;;;;;5064143;28;20776;-81
2021/07/09 04:59:54;;;;;;;29.23;26.13;;;16.70;99.90;;;;;;5073329;28;20494;-82
2021/07/09 05:02:20;;;;;;;31.73;26.53;;;16.70;99.90;;;;;;5095228;28;20430;-82
2021/07/09 05:04:45;;;;;;;30.73;27.00;;;16.70;99.90;;;;;;5044664;28;20580;-80
2021/07/09 05:07:11;;;;;;;30.87;27.67;;;16.70;99.90;;;;;;5095209;28;20426;-81
2021/07/09 05:09:37;;;;;;;30.10;26.80;;;16.70;99.90;;;;;;5071041;28;20217;-81
2021/07/09 05:12:03;;;;;;;30.83;26.63;;;16.80;99.90;;;;;;5076512;28;20199;-81
2021/07/09 05:14:28;;;;;;;32.20;28.80;;;16.80;99.90;;;;;;5060060;28;20824;-80
2021/07/09 05:16:55;;;;;;;34.73;29.60;;;16.80;99.90;;;;;;5059631;28;20457;-82
2021/07/09 05:19:21;;;;;;;33.10;29.50;;;16.80;99.90;;;;;;5082922;28;20242;-81
2021/07/09 05:21:47;;;;;;;34.00;29.40;;;16.80;99.90;;;;;;5090653;28;20418;-81
2021/07/09 05:24:13;;;;;;;32.10;28.10;;;16.80;99.90;;;;;;5082534;28;20473;-80
2021/07/09 05:26:40;;;;;;;32.07;28.67;;;16.80;99.90;;;;;;5094399;28;20849;-81
2021/07/09 05:29:06;;;;;;;34.60;30.97;;;16.90;99.90;;;;;;5065656;28;20476;-82
2021/07/09 05:31:33;;;;;;;37.83;31.40;;;16.90;99.90;;;;;;5094576;28;20438;-82
2021/07/09 05:33:59;;;;;;;34.07;30.47;;;16.90;99.90;;;;;;5052584;28;20581;-80
2021/07/09 05:36:25;;;;;;;34.30;30.73;;;16.90;99.90;;;;;;5076624;28;20450;-80
2021/07/09 05:38:51;;;;;;;38.47;34.27;;;16.90;99.90;;;;;;5044416;28;20430;-81
2021/07/09 05:41:16;;;;;;;39.97;35.50;;;17.00;99.90;;;;;;5053923;28;20673;-82
2021/07/09 05:43:43;;;;;;;44.23;39.50;;;17.00;99.90;;;;;;5029442;28;20220;-82
2021/07/09 05:46:09;;;;;;;46.07;39.27;;;17.10;99.90;;;;;;5088886;28;20226;-80
2021/07/09 05:48:35;;;;;;;46.13;40.47;;;17.10;99.90;;;;;;5070424;28;20434;-82
2021/07/09 05:51:01;;;;;;;49.30;42.67;;;17.10;99.90;;;;;;5092904;28;20410;-81
2021/07/09 05:53:27;;;;;;;55.83;45.20;;;17.10;99.90;;;;;;5063742;28;20184;-81
2021/07/09 05:55:52;;;;;;;59.10;48.40;;;17.10;99.90;;;;;;5074924;28;20201;-82
2021/07/09 05:58:18;;;;;;;59.77;48.50;;;17.10;99.90;;;;;;5067069;28;20426;-80
2021/07/09 06:00:44;;;;;;;60.97;48.13;;;17.20;99.90;;;;;;5052290;28;20213;-80
2021/07/09 06:03:10;;;;;;;59.80;47.70;;;17.20;99.90;;;;;;5086137;28;20236;-80
2021/07/09 06:05:35;;;;;;;72.40;52.00;;;17.20;99.90;;;;;;5070317;28;20480;-80
2021/07/09 06:08:06;;;;;;;62.70;49.00;;;17.20;99.90;;;;;;5079466;28;20183;-80
2021/07/09 06:10:32;;;;;;;63.30;49.23;;;17.20;99.90;;;;;;5095460;28;20180;-81
2021/07/09 06:12:58;;;;;;;69.73;52.23;;;17.20;99.90;;;;;;5068603;28;20419;-81
2021/07/09 06:15:25;;;;;;;70.30;53.97;;;17.30;99.90;;;;;;5096042;28;20567;-82
2021/07/09 06:17:51;;;;;;;65.10;52.70;;;17.30;99.90;;;;;;5092881;28;21352;-81
2021/07/09 06:20:17;;;;;;;63.93;51.30;;;17.30;99.90;;;;;;5064823;28;20424;-81
2021/07/09 06:22:42;;;;;;;63.93;51.27;;;17.30;99.90;;;;;;5073057;28;20220;-81
2021/07/09 06:25:09;;;;;;;63.17;52.47;;;17.30;99.90;;;;;;5074378;28;20208;-82
2021/07/09 06:27:35;;;;;;;64.57;51.50;;;17.30;99.90;;;;;;5056520;28;20536;-81
2021/07/09 06:30:00;;;;;;;68.20;51.57;;;17.40;99.90;;;;;;5040834;28;20485;-82
2021/07/09 06:32:26;;;;;;;66.80;50.60;;;17.40;99.90;;;;;;5078099;28;20494;-81
2021/07/09 06:34:52;;;;;;;73.27;52.90;;;17.40;99.90;;;;;;5063286;28;20259;-81
2021/07/09 06:37:17;;;;;;;65.00;49.00;;;17.50;99.90;;;;;;5080056;28;20196;-81
2021/07/09 06:39:43;;;;;;;65.30;51.43;;;17.50;99.90;;;;;;5092130;28;20215;-80
2021/07/09 06:42:09;;;;;;;60.20;48.73;;;17.40;99.90;;;;;;5080416;28;20180;-80
2021/07/09 06:44:34;;;;;;;63.33;47.20;;;17.40;99.90;;;;;;5049961;28;20259;-81
2021/07/09 06:47:00;;;;;;;64.03;50.10;;;17.50;99.90;;;;;;5062496;28;20196;-80
2021/07/09 06:49:25;;;;;;;59.70;46.07;;;17.50;99.90;;;;;;5073939;28;20191;-81
2021/07/09 06:51:51;;;;;;;57.23;46.50;;;17.50;99.90;;;;;;5029760;28;20272;-80
2021/07/09 06:54:17;;;;;;;55.40;41.10;;;17.50;99.90;;;;;;5089765;28;20224;-81
2021/07/09 06:56:42;;;;;;;53.73;42.20;;;17.60;99.90;;;;;;5078895;28;20195;-82
2021/07/09 06:59:08;;;;;;;43.90;39.00;;;17.60;99.90;;;;;;5049134;28;20662;-81
2021/07/09 07:01:34;;;;;;;53.57;42.17;;;17.60;99.90;;;;;;5095487;28;20212;-81
2021/07/09 07:03:59;;;;;;;45.00;37.90;;;17.60;99.90;;;;;;5061244;28;20239;-80
2021/07/09 07:06:25;;;;;;;43.67;37.07;;;17.70;99.90;;;;;;5089428;28;20398;-79
2021/07/09 07:08:51;;;;;;;47.50;39.30;;;17.70;99.90;;;;;;5095253;28;20185;-80
2021/07/09 07:11:16;;;;;;;41.07;36.57;;;17.70;99.90;;;;;;5060964;28;20215;-80
2021/07/09 07:13:42;;;;;;;44.20;37.00;;;17.70;99.90;;;;;;5077401;28;20460;-80
2021/07/09 07:16:09;;;;;;;42.80;37.80;;;17.70;99.90;;;;;;5094139;28;20191;-79
2021/07/09 07:18:35;;;;;;;42.50;37.77;;;17.80;99.90;;;;;;5058366;28;20199;-79
2021/07/09 07:21:00;;;;;;;38.90;34.80;;;17.80;99.90;;;;;;5087882;28;20427;-79
2021/07/09 07:23:27;;;;;;;39.93;34.83;;;17.80;99.90;;;;;;5088317;28;20462;-79
2021/07/09 07:25:53;;;;;;;39.67;33.67;;;17.90;99.90;;;;;;5061706;28;20509;-80
2021/07/09 07:28:20;;;;;;;39.03;34.77;;;17.90;99.90;;;;;;5095943;28;20418;-79
2021/07/09 07:30:45;;;;;;;35.33;29.60;;;17.90;99.90;;;;;;5060686;28;20414;-81
2021/07/09 07:33:11;;;;;;;34.17;29.33;;;17.90;99.90;;;;;;5073371;28;20427;-80
2021/07/09 07:35:39;;;;;;;31.60;28.33;;;17.90;99.90;;;;;;5070614;28;20240;-81
2021/07/09 07:38:05;;;;;;;29.67;26.03;;;17.90;99.90;;;;;;5089325;28;20660;-79
2021/07/09 07:40:31;;;;;;;29.10;26.20;;;17.90;99.90;;;;;;5094452;28;20423;-79
2021/07/09 07:42:56;;;;;;;31.60;27.67;;;17.90;99.90;;;;;;5081164;28;20847;-80
2021/07/09 07:45:22;;;;;;;31.70;27.47;;;17.90;99.90;;;;;;5087701;28;20442;-80
2021/07/09 07:47:48;;;;;;;27.90;24.93;;;18.00;99.90;;;;;;5089539;28;20189;-79
2021/07/09 07:50:16;;;;;;;28.63;24.73;;;18.00;99.90;;;;;;5062762;28;20185;-80
2021/07/09 07:52:42;;;;;;;26.80;23.70;;;18.00;99.90;;;;;;5094655;28;20206;-80
2021/07/09 07:55:08;;;;;;;28.30;25.30;;;18.10;99.90;;;;;;5093374;28;20466;-81
2021/07/09 07:57:34;;;;;;;26.07;22.37;;;18.10;99.90;;;;;;5095632;28;20214;-80
2021/07/09 07:59:59;;;;;;;24.93;22.43;;;18.10;99.90;;;;;;5089641;28;20424;-80
2021/07/09 08:02:25;;;;;;;26.53;23.60;;;18.10;99.90;;;;;;5053370;28;20188;-81
2021/07/09 08:04:51;;;;;;;28.60;22.83;;;18.10;99.90;;;;;;5059125;28;20224;-81
2021/07/09 08:07:16;;;;;;;26.00;23.30;;;18.20;99.90;;;;;;5048996;28;20196;-81
2021/07/09 08:09:42;;;;;;;29.23;23.67;;;18.20;99.90;;;;;;5072743;28;20224;-81
2021/07/09 08:12:09;;;;;;;25.27;22.67;;;18.20;99.90;;;;;;5094428;28;20172;-82
2021/07/09 08:14:35;;;;;;;24.20;20.73;;;18.20;99.90;;;;;;5094378;28;21182;-81
2021/07/09 08:17:05;;;;;;;25.80;21.63;;;18.20;99.90;;;;;;5059998;28;20469;-81
2021/07/09 08:19:31;;;;;;;22.67;19.70;;;18.20;99.90;;;;;;5068543;28;20945;-81
2021/07/09 08:21:56;;;;;;;28.43;22.13;;;18.30;99.90;;;;;;5074682;28;20747;-81
2021/07/09 08:24:22;;;;;;;26.33;21.83;;;18.30;99.90;;;;;;5085801;28;20809;-81
2021/07/09 08:26:48;;;;;;;26.53;21.50;;;18.40;99.90;;;;;;5091828;28;20192;-80
2021/07/09 08:29:13;;;;;;;22.10;19.80;;;18.40;99.90;;;;;;5085599;28;20173;-81
2021/07/09 08:31:39;;;;;;;23.83;20.27;;;18.50;99.90;;;;;;5070218;28;20200;-80
2021/07/09 08:34:05;;;;;;;22.43;18.00;;;18.60;99.90;;;;;;5076272;28;20204;-81
2021/07/09 08:36:31;;;;;;;19.40;17.10;;;18.70;99.90;;;;;;5068389;28;20191;-80
2021/07/09 08:38:57;;;;;;;19.17;17.10;;;18.80;99.90;;;;;;5054440;28;20457;-80
2021/07/09 08:41:23;;;;;;;21.20;16.90;;;18.80;99.90;;;;;;5070655;28;20790;-80
2021/07/09 08:43:49;;;;;;;20.87;17.70;;;18.90;99.90;;;;;;5070580;28;20471;-81
2021/07/09 08:46:15;;;;;;;19.60;16.70;;;19.00;99.90;;;;;;5088940;28;20269;-80
2021/07/09 08:48:42;;;;;;;18.03;16.20;;;19.00;99.90;;;;;;5072708;28;20834;-81
2021/07/09 08:51:09;;;;;;;19.30;15.83;;;19.10;99.90;;;;;;5095072;28;20679;-80
2021/07/09 08:53:35;;;;;;;18.80;16.50;;;19.10;99.90;;;;;;5077785;28;20888;-80
2021/07/09 08:56:01;;;;;;;19.27;16.13;;;19.20;99.90;;;;;;5077883;28;20513;-81
2021/07/09 08:58:27;;;;;;;18.53;16.63;;;19.30;99.90;;;;;;5070366;28;20510;-81
2021/07/09 09:00:54;;;;;;;18.63;15.97;;;19.30;99.90;;;;;;5072142;28;20458;-81
2021/07/09 09:03:24;;;;;;;22.70;16.87;;;19.40;99.90;;;;;;5087494;28;20470;-81
2021/07/09 09:05:51;;;;;;;19.00;16.57;;;19.70;99.90;;;;;;5087854;28;20434;-82
2021/07/09 09:08:20;;;;;;;18.77;16.67;;;19.90;99.90;;;;;;5096453;28;20422;-82
2021/07/09 09:10:51;;;;;;;19.03;15.90;;;20.00;99.90;;;;;;5083544;28;20419;-81
2021/07/09 09:13:28;;;;;;;21.83;19.60;;;20.20;99.90;;;;;;5095952;28;20425;-81
2021/07/09 09:16:06;;;;;;;26.83;18.80;;;20.30;99.90;;;;;;5096165;28;20777;-81
2021/07/09 09:18:35;;;;;;;20.90;18.70;;;20.50;99.90;;;;;;5096530;28;20480;-81
2021/07/09 09:21:18;;;;;;;27.63;24.80;;;20.70;99.90;;;;;;5074673;28;20443;-81
2021/07/09 09:23:50;;;;;;;27.10;20.53;;;20.70;99.90;;;;;;5088721;28;20463;-82
2021/07/09 09:26:42;;;;;;;24.50;21.83;;;20.70;99.90;;;;;;5068948;28;20414;-81
2021/07/09 09:29:24;;;;;;;25.03;22.50;;;20.70;99.90;;;;;;5078269;28;20422;-81
2021/07/09 09:31:53;;;;;;;25.07;22.60;;;20.80;99.90;;;;;;5067767;28;20434;-81
2021/07/09 09:34:54;;;;;;;24.07;21.47;;;20.80;99.90;;;;;;5077372;28;20493;-82
2021/07/09 09:37:23;;;;;;;24.97;22.53;;;20.90;99.90;;;;;;5095019;28;20423;-81
2021/07/09 09:39:49;;;;;;;24.90;21.27;;;20.90;99.90;;;;;;5081543;28;20443;-82
2021/07/09 09:42:19;;;;;;;20.30;18.50;;;21.00;99.90;;;;;;5070199;28;20428;-82
2021/07/09 09:45:07;;;;;;;23.70;21.40;;;21.20;99.90;;;;;;5054700;28;20697;-81
2021/07/09 09:47:34;;;;;;;23.70;21.40;;;21.40;99.90;;;;;;5085728;28;20438;-81
2021/07/09 09:50:08;;;;;;;21.17;19.23;;;21.60;99.90;;;;;;5070372;28;20446;-81
2021/07/09 09:52:43;;;;;;;19.77;17.80;;;21.70;99.90;;;;;;5088721;28;20414;-82
2021/07/09 09:55:11;;;;;;;19.97;18.07;;;21.90;99.90;;;;;;5082378;28;20445;-81
2021/07/09 09:57:38;;;;;;;17.27;15.67;;;22.10;99.90;;;;;;5049505;28;20923;-82
2021/07/09 10:00:07;;;;;;;18.10;16.30;;;22.30;99.90;;;;;;5055112;28;20404;-81
2021/07/09 10:02:33;;;;;;;19.37;17.47;;;22.40;99.90;;;;;;5071580;28;20406;-80
2021/07/09 10:05:00;;;;;;;15.57;14.17;;;22.40;99.90;;;;;;5072793;28;20541;-82
2021/07/09 10:07:26;;;;;;;18.60;17.00;;;22.50;99.90;;;;;;5086829;28;20425;-81
2021/07/09 10:09:52;;;;;;;19.70;17.90;;;22.60;99.90;;;;;;5096222;28;20814;-80
2021/07/09 10:12:18;;;;;;;17.73;16.00;;;22.50;99.90;;;;;;5090864;28;20493;-81
2021/07/09 10:14:45;;;;;;;20.03;18.23;;;22.50;99.90;;;;;;5078125;28;20855;-82
2021/07/09 10:17:13;;;;;;;17.37;15.90;;;22.60;99.90;;;;;;5095078;28;20867;-82
2021/07/09 10:19:42;;;;;;;16.97;15.20;;;22.50;99.90;;;;;;5093279;28;20517;-81
2021/07/09 10:22:10;;;;;;;16.87;15.37;;;22.60;99.90;;;;;;5072684;28;20452;-82
2021/07/09 10:24:40;;;;;;;15.90;14.50;;;22.60;99.90;;;;;;5077407;28;20502;-81
2021/07/09 10:27:06;;;;;;;17.33;15.80;;;22.70;99.90;;;;;;5094573;28;20419;-80
2021/07/09 10:29:34;;;;;;;16.17;14.77;;;22.80;99.90;;;;;;5084021;28;20422;-80
2021/07/09 10:32:01;;;;;;;17.90;16.17;;;22.80;99.90;;;;;;5055319;28;20822;-81
2021/07/09 10:34:47;;;;;;;15.10;13.80;;;22.90;99.90;;;;;;5071801;28;20469;-80
2021/07/09 10:37:22;;;;;;;18.63;16.80;;;22.90;99.90;;;;;;5087604;28;20900;-80
2021/07/09 10:39:50;;;;;;;13.23;12.13;;;23.00;99.90;;;;;;5093566;28;20496;-80
2021/07/09 10:42:25;;;;;;;15.97;14.53;;;23.10;99.90;;;;;;5084875;28;20426;-81
2021/07/09 10:45:04;;;;;;;16.00;14.60;;;23.10;99.90;;;;;;5074900;28;20561;-80
2021/07/09 10:47:53;;;;;;;14.83;13.33;;;23.10;99.90;;;;;;5085348;28;20417;-81
2021/07/09 10:50:35;;;;;;;19.17;17.30;;;23.20;99.90;;;;;;5091987;28;21145;-81
2021/07/09 10:53:18;;;;;;;16.37;14.97;;;23.30;99.90;;;;;;5065616;28;20422;-80
2021/07/09 10:55:59;;;;;;;12.97;11.80;;;23.10;99.90;;;;;;5083889;28;20544;-81
2021/07/09 10:58:26;;;;;;;16.23;14.70;;;23.10;99.90;;;;;;5094046;28;20478;-80
2021/07/09 11:00:57;;;;;;;14.37;13.17;;;23.20;99.90;;;;;;5066482;28;20407;-80
2021/07/09 11:03:38;;;;;;;15.07;13.53;;;23.40;99.90;;;;;;5073447;28;20462;-79
2021/07/09 11:06:09;;;;;;;13.77;12.47;;;23.30;99.90;;;;;;5054576;28;20411;-79
2021/07/09 11:08:40;;;;;;;11.17;10.10;;;23.50;99.90;;;;;;5075751;28;20427;-81
2021/07/09 11:11:12;;;;;;;11.47;10.37;;;23.70;99.90;;;;;;5064568;28;20422;-79
2021/07/09 11:13:48;;;;;;;10.20;9.20;;;23.80;99.90;;;;;;5096727;28;20414;-81
2021/07/09 11:16:20;;;;;;;8.97;8.27;;;23.80;99.90;;;;;;5067980;28;20422;-81
2021/07/09 11:18:50;;;;;;;10.07;8.97;;;23.60;99.90;;;;;;5085698;28;20437;-80
2021/07/09 11:21:37;;;;;;;10.20;7.53;;;23.40;99.90;;;;;;5096657;28;20415;-79
2021/07/09 11:24:08;;;;;;;7.63;6.93;;;23.30;99.90;;;;;;5087052;28;20547;-81
2021/07/09 11:26:36;;;;;;;6.93;6.33;;;23.40;99.90;;;;;;5066996;28;20408;-80
2021/07/09 11:29:22;;;;;;;6.50;5.90;;;23.50;99.90;;;;;;5095377;28;20774;-79
2021/07/09 11:31:48;;;;;;;5.67;5.17;;;23.60;99.90;;;;;;5065982;28;20957;-80
2021/07/09 11:34:16;;;;;;;5.33;4.90;;;23.60;99.90;;;;;;5095588;28;20826;-80
2021/07/09 11:37:00;;;;;;;6.50;6.00;;;23.50;99.90;;;;;;5066742;28;20824;-79
2021/07/09 11:39:34;;;;;;;5.50;5.00;;;23.40;99.90;;;;;;5096026;28;21110;-79
2021/07/09 11:42:13;;;;;;;5.67;5.10;;;23.30;99.90;;;;;;5074547;28;20433;-80
2021/07/09 11:44:51;;;;;;;6.13;5.53;;;23.30;99.90;;;;;;5094939;28;20553;-79
2021/07/09 11:47:19;;;;;;;5.43;5.03;;;23.20;99.90;;;;;;5088258;28;20822;-79
2021/07/09 11:49:50;;;;;;;6.07;5.57;;;23.00;99.90;;;;;;5057111;28;20463;-80
2021/07/09 11:52:21;;;;;;;6.57;5.93;;;22.80;99.90;;;;;;5092189;28;20415;-80
2021/07/09 11:54:48;;;;;;;5.87;5.37;;;22.70;99.90;;;;;;5096024;28;20469;-80
2021/07/09 11:57:19;;;;;;;6.13;5.50;;;22.60;99.90;;;;;;5096006;28;20482;-80
2021/07/09 11:59:46;;;;;;;6.77;6.20;;;22.60;99.90;;;;;;5057212;28;20419;-80
2021/07/09 12:02:17;;;;;;;6.33;5.83;;;22.50;99.90;;;;;;5086059;28;20518;-79
2021/07/09 12:04:50;;;;;;;7.90;5.33;;;22.60;99.90;;;;;;5085814;28;20505;-79
2021/07/09 12:07:23;;;;;;;6.30;5.70;;;22.50;99.90;;;;;;5070947;28;20418;-79
2021/07/09 12:10:10;;;;;;;6.00;5.50;;;22.60;99.90;;;;;;5094584;28;20415;-79
2021/07/09 12:12:45;;;;;;;7.53;6.83;;;22.60;99.90;;;;;;5082541;28;20418;-79
2021/07/09 12:15:13;;;;;;;6.40;5.60;;;22.60;99.90;;;;;;5094876;28;20465;-80
2021/07/09 12:17:44;;;;;;;6.47;5.87;;;22.60;99.90;;;;;;5078947;28;20442;-80
2021/07/09 12:20:16;;;;;;;6.93;6.07;;;22.60;99.90;;;;;;5096161;28;20430;-79
2021/07/09 12:22:58;;;;;;;7.80;5.77;;;22.60;99.90;;;;;;5075328;28;20668;-79
2021/07/09 12:25:36;;;;;;;7.80;5.27;;;22.50;99.90;;;;;;5092167;28;20457;-79
2021/07/09 12:28:07;;;;;;;5.90;5.40;;;22.50;99.90;;;;;;5078825;28;20418;-79
2021/07/09 12:30:38;;;;;;;5.30;4.80;;;22.40;99.90;;;;;;5089636;28;20451;-80
2021/07/09 12:33:28;;;;;;;5.27;4.80;;;22.40;99.90;;;;;;5090229;28;20411;-79